sensor_id;sensor_type;location;lat;lon;timestamp;P1;durP1;ratioP1;P2;durP2;ratioP2
13985;SDS011;7067;51.832;8.296;2023-12-07T00:01:25;45.93;;;35.20;;
13985;SDS011;7067;51.832;8.296;2023-12-07T00:03:50;44.47;;;36.20;;
13985;SDS011;7067;51.832;8.296;2023-12-07T00:06:15;46.17;;;35.30;;
13985;SDS011;7067;51.832;8.296;2023-12-07T00:08:41;42.60;;;34.97;;
13985;SDS011;7067;51.832;8.296;2023-12-07T00:11:06;46.00;;;35.37;;
13985;SDS011;7067;51.832;8.296;2023-12-07T00:13:31;42.63;;;34.77;;
13985;SDS011;7067;51.832;8.296;2023-12-07T00:15:57;43.03;;;34.03;;
13985;SDS011;7067;51.832;8.296;2023-12-07T00:18:22;45.60;;;34.70;;
13985;SDS011;7067;51.832;8.296;2023-12-07T00:20:47;46.00;;;34.57;;
13985;SDS011;7067;51.832;8.296;2023-12-07T00:23:13;48.90;;;35.20;;
13985;SDS011;7067;51.832;8.296;2023-12-07T00:25:38;44.37;;;35.30;;
13985;SDS011;7067;51.832;8.296;2023-12-07T00:28:03;46.17;;;35.90;;
13985;SDS011;7067;51.832;8.296;2023-12-07T00:30:30;48.30;;;34.33;;
13985;SDS011;7067;51.832;8.296;2023-12-07T00:32:55;40.07;;;33.73;;
13985;SDS011;7067;51.832;8.296;2023-12-07T00:35:21;48.50;;;36.93;;
13985;SDS011;7067;51.832;8.296;2023-12-07T00:37:47;45.23;;;35.90;;
13985;SDS011;7067;51.832;8.296;2023-12-07T00:40:13;46.07;;;35.23;;
13985;SDS011;7067;51.832;8.296;2023-12-07T00:42:39;45.40;;;34.37;;
13985;SDS011;7067;51.832;8.296;2023-12-07T00:45:04;48.87;;;35.77;;
13985;SDS011;7067;51.832;8.296;2023-12-07T00:47:30;45.33;;;36.20;;
13985;SDS011;7067;51.832;8.296;2023-12-07T00:49:55;47.77;;;35.93;;
13985;SDS011;7067;51.832;8.296;2023-12-07T00:52:21;48.13;;;36.27;;
13985;SDS011;7067;51.832;8.296;2023-12-07T00:54:46;46.03;;;35.70;;
13985;SDS011;7067;51.832;8.296;2023-12-07T00:57:11;45.57;;;35.83;;
13985;SDS011;7067;51.832;8.296;2023-12-07T00:59:37;47.13;;;34.93;;
13985;SDS011;7067;51.832;8.296;2023-12-07T01:02:05;47.33;;;35.63;;
13985;SDS011;7067;51.832;8.296;2023-12-07T01:04:31;51.23;;;37.23;;
13985;SDS011;7067;51.832;8.296;2023-12-07T01:06:57;48.90;;;35.30;;
13985;SDS011;7067;51.832;8.296;2023-12-07T01:09:23;45.33;;;34.27;;
13985;SDS011;7067;51.832;8.296;2023-12-07T01:11:48;42.27;;;33.27;;
13985;SDS011;7067;51.832;8.296;2023-12-07T01:14:14;45.17;;;35.03;;
13985;SDS011;7067;51.832;8.296;2023-12-07T01:16:39;56.00;;;36.10;;
13985;SDS011;7067;51.832;8.296;2023-12-07T01:19:05;45.80;;;34.73;;
13985;SDS011;7067;51.832;8.296;2023-12-07T01:21:31;47.63;;;33.57;;
13985;SDS011;7067;51.832;8.296;2023-12-07T01:23:57;46.47;;;33.40;;
13985;SDS011;7067;51.832;8.296;2023-12-07T01:26:23;46.90;;;33.37;;
13985;SDS011;7067;51.832;8.296;2023-12-07T01:28:48;47.20;;;34.17;;
13985;SDS011;7067;51.832;8.296;2023-12-07T01:31:14;48.73;;;36.27;;
13985;SDS011;7067;51.832;8.296;2023-12-07T01:33:39;46.17;;;34.73;;
13985;SDS011;7067;51.832;8.296;2023-12-07T01:36:04;41.73;;;31.90;;
13985;SDS011;7067;51.832;8.296;2023-12-07T01:38:30;46.40;;;33.83;;
13985;SDS011;7067;51.832;8.296;2023-12-07T01:40:55;44.43;;;32.00;;
13985;SDS011;7067;51.832;8.296;2023-12-07T01:43:22;49.23;;;35.60;;
13985;SDS011;7067;51.832;8.296;2023-12-07T01:45:47;44.07;;;32.70;;
13985;SDS011;7067;51.832;8.296;2023-12-07T01:48:13;50.83;;;35.67;;
13985;SDS011;7067;51.832;8.296;2023-12-07T01:50:39;47.87;;;34.50;;
13985;SDS011;7067;51.832;8.296;2023-12-07T01:53:04;50.00;;;38.23;;
13985;SDS011;7067;51.832;8.296;2023-12-07T01:55:30;46.83;;;35.93;;
13985;SDS011;7067;51.832;8.296;2023-12-07T01:57:57;49.27;;;36.73;;
13985;SDS011;7067;51.832;8.296;2023-12-07T02:00:22;49.40;;;35.40;;
13985;SDS011;7067;51.832;8.296;2023-12-07T02:02:47;48.90;;;37.60;;
13985;SDS011;7067;51.832;8.296;2023-12-07T02:05:14;50.50;;;37.40;;
13985;SDS011;7067;51.832;8.296;2023-12-07T02:07:41;53.53;;;36.40;;
13985;SDS011;7067;51.832;8.296;2023-12-07T02:10:06;56.10;;;39.20;;
13985;SDS011;7067;51.832;8.296;2023-12-07T02:12:32;52.60;;;37.23;;
13985;SDS011;7067;51.832;8.296;2023-12-07T02:14:58;60.30;;;37.93;;
13985;SDS011;7067;51.832;8.296;2023-12-07T02:17:27;54.73;;;37.73;;
13985;SDS011;7067;51.832;8.296;2023-12-07T02:23:01;54.07;;;37.60;;
13985;SDS011;7067;51.832;8.296;2023-12-07T02:25:32;56.53;;;38.03;;
13985;SDS011;7067;51.832;8.296;2023-12-07T02:28:02;53.73;;;36.67;;
13985;SDS011;7067;51.832;8.296;2023-12-07T02:30:27;53.60;;;37.90;;
13985;SDS011;7067;51.832;8.296;2023-12-07T02:32:53;56.63;;;39.83;;
13985;SDS011;7067;51.832;8.296;2023-12-07T02:35:18;59.87;;;39.37;;
13985;SDS011;7067;51.832;8.296;2023-12-07T02:37:48;58.80;;;39.63;;
13985;SDS011;7067;51.832;8.296;2023-12-07T02:40:15;51.93;;;38.63;;
13985;SDS011;7067;51.832;8.296;2023-12-07T02:42:42;51.50;;;39.27;;
13985;SDS011;7067;51.832;8.296;2023-12-07T02:45:08;53.83;;;39.57;;
13985;SDS011;7067;51.832;8.296;2023-12-07T02:47:34;59.10;;;38.80;;
13985;SDS011;7067;51.832;8.296;2023-12-07T02:50:00;54.97;;;38.13;;
13985;SDS011;7067;51.832;8.296;2023-12-07T02:52:25;59.63;;;38.17;;
13985;SDS011;7067;51.832;8.296;2023-12-07T02:54:50;51.70;;;38.53;;
13985;SDS011;7067;51.832;8.296;2023-12-07T02:57:16;53.40;;;37.53;;
13985;SDS011;7067;51.832;8.296;2023-12-07T02:59:41;55.50;;;37.77;;
13985;SDS011;7067;51.832;8.296;2023-12-07T03:02:06;54.60;;;39.67;;
13985;SDS011;7067;51.832;8.296;2023-12-07T03:04:32;54.97;;;38.10;;
13985;SDS011;7067;51.832;8.296;2023-12-07T03:06:58;56.67;;;38.83;;
13985;SDS011;7067;51.832;8.296;2023-12-07T03:09:23;52.70;;;36.50;;
13985;SDS011;7067;51.832;8.296;2023-12-07T03:11:48;54.80;;;39.10;;
13985;SDS011;7067;51.832;8.296;2023-12-07T03:14:14;51.70;;;38.23;;
13985;SDS011;7067;51.832;8.296;2023-12-07T03:16:39;52.97;;;39.57;;
13985;SDS011;7067;51.832;8.296;2023-12-07T03:19:04;49.27;;;36.93;;
13985;SDS011;7067;51.832;8.296;2023-12-07T03:21:30;47.93;;;36.67;;
13985;SDS011;7067;51.832;8.296;2023-12-07T03:23:55;51.83;;;36.13;;
13985;SDS011;7067;51.832;8.296;2023-12-07T03:26:21;46.67;;;35.23;;
13985;SDS011;7067;51.832;8.296;2023-12-07T03:28:46;45.73;;;34.93;;
13985;SDS011;7067;51.832;8.296;2023-12-07T03:31:11;47.33;;;34.53;;
13985;SDS011;7067;51.832;8.296;2023-12-07T03:33:37;48.23;;;35.93;;
13985;SDS011;7067;51.832;8.296;2023-12-07T03:36:03;48.23;;;33.80;;
13985;SDS011;7067;51.832;8.296;2023-12-07T03:38:29;53.93;;;36.67;;
13985;SDS011;7067;51.832;8.296;2023-12-07T03:40:54;48.17;;;34.30;;
13985;SDS011;7067;51.832;8.296;2023-12-07T03:43:20;49.47;;;35.60;;
13985;SDS011;7067;51.832;8.296;2023-12-07T03:45:48;49.53;;;35.90;;
13985;SDS011;7067;51.832;8.296;2023-12-07T03:48:13;46.00;;;33.10;;
13985;SDS011;7067;51.832;8.296;2023-12-07T03:50:38;45.43;;;33.80;;
13985;SDS011;7067;51.832;8.296;2023-12-07T03:53:04;45.83;;;33.97;;
13985;SDS011;7067;51.832;8.296;2023-12-07T03:55:32;41.57;;;32.00;;
13985;SDS011;7067;51.832;8.296;2023-12-07T03:57:57;52.63;;;36.07;;
13985;SDS011;7067;51.832;8.296;2023-12-07T04:00:22;50.00;;;35.17;;
13985;SDS011;7067;51.832;8.296;2023-12-07T04:02:48;50.47;;;36.50;;
13985;SDS011;7067;51.832;8.296;2023-12-07T04:05:13;46.20;;;34.07;;
13985;SDS011;7067;51.832;8.296;2023-12-07T04:07:39;48.13;;;36.93;;
13985;SDS011;7067;51.832;8.296;2023-12-07T04:10:04;45.67;;;34.97;;
13985;SDS011;7067;51.832;8.296;2023-12-07T04:12:31;49.20;;;36.17;;
13985;SDS011;7067;51.832;8.296;2023-12-07T04:14:56;50.73;;;36.03;;
13985;SDS011;7067;51.832;8.296;2023-12-07T04:17:22;46.30;;;34.33;;
13985;SDS011;7067;51.832;8.296;2023-12-07T04:19:47;50.97;;;36.00;;
13985;SDS011;7067;51.832;8.296;2023-12-07T04:22:12;48.47;;;35.10;;
13985;SDS011;7067;51.832;8.296;2023-12-07T04:24:38;52.87;;;38.03;;
13985;SDS011;7067;51.832;8.296;2023-12-07T04:27:03;50.40;;;36.53;;
13985;SDS011;7067;51.832;8.296;2023-12-07T04:29:29;53.40;;;39.57;;
13985;SDS011;7067;51.832;8.296;2023-12-07T04:31:54;56.90;;;38.73;;
13985;SDS011;7067;51.832;8.296;2023-12-07T04:34:19;58.23;;;40.80;;
13985;SDS011;7067;51.832;8.296;2023-12-07T04:36:45;58.77;;;40.03;;
13985;SDS011;7067;51.832;8.296;2023-12-07T04:39:10;58.23;;;39.57;;
13985;SDS011;7067;51.832;8.296;2023-12-07T04:41:36;70.73;;;42.47;;
13985;SDS011;7067;51.832;8.296;2023-12-07T04:44:01;79.00;;;46.13;;
13985;SDS011;7067;51.832;8.296;2023-12-07T04:46:26;67.13;;;45.63;;
13985;SDS011;7067;51.832;8.296;2023-12-07T04:48:53;70.73;;;46.97;;
13985;SDS011;7067;51.832;8.296;2023-12-07T04:51:19;78.47;;;48.57;;
13985;SDS011;7067;51.832;8.296;2023-12-07T04:53:44;75.80;;;47.03;;
13985;SDS011;7067;51.832;8.296;2023-12-07T04:56:09;74.67;;;47.27;;
13985;SDS011;7067;51.832;8.296;2023-12-07T04:58:35;69.93;;;45.67;;
13985;SDS011;7067;51.832;8.296;2023-12-07T05:01:00;76.53;;;48.20;;
13985;SDS011;7067;51.832;8.296;2023-12-07T05:03:26;76.60;;;46.67;;
13985;SDS011;7067;51.832;8.296;2023-12-07T05:05:51;78.37;;;49.13;;
13985;SDS011;7067;51.832;8.296;2023-12-07T05:08:17;80.53;;;50.20;;
13985;SDS011;7067;51.832;8.296;2023-12-07T05:10:43;81.10;;;49.30;;
13985;SDS011;7067;51.832;8.296;2023-12-07T05:13:08;82.07;;;51.47;;
13985;SDS011;7067;51.832;8.296;2023-12-07T05:15:33;79.63;;;48.30;;
13985;SDS011;7067;51.832;8.296;2023-12-07T05:17:59;78.97;;;46.20;;
13985;SDS011;7067;51.832;8.296;2023-12-07T05:20:24;78.27;;;45.60;;
13985;SDS011;7067;51.832;8.296;2023-12-07T05:22:52;75.87;;;45.80;;
13985;SDS011;7067;51.832;8.296;2023-12-07T05:25:17;74.03;;;45.40;;
13985;SDS011;7067;51.832;8.296;2023-12-07T05:27:43;87.50;;;49.97;;
13985;SDS011;7067;51.832;8.296;2023-12-07T05:30:09;78.47;;;48.67;;
13985;SDS011;7067;51.832;8.296;2023-12-07T05:32:35;77.23;;;46.87;;
13985;SDS011;7067;51.832;8.296;2023-12-07T05:35:00;80.03;;;48.73;;
13985;SDS011;7067;51.832;8.296;2023-12-07T05:37:26;82.70;;;48.40;;
13985;SDS011;7067;51.832;8.296;2023-12-07T05:39:51;94.77;;;51.00;;
13985;SDS011;7067;51.832;8.296;2023-12-07T05:42:16;87.67;;;49.20;;
13985;SDS011;7067;51.832;8.296;2023-12-07T05:44:41;98.50;;;50.77;;
13985;SDS011;7067;51.832;8.296;2023-12-07T05:47:07;103.50;;;52.70;;
13985;SDS011;7067;51.832;8.296;2023-12-07T05:49:33;97.90;;;50.63;;
13985;SDS011;7067;51.832;8.296;2023-12-07T05:51:58;94.43;;;48.87;;
13985;SDS011;7067;51.832;8.296;2023-12-07T05:54:23;118.80;;;53.97;;
13985;SDS011;7067;51.832;8.296;2023-12-07T05:56:49;114.80;;;55.00;;
13985;SDS011;7067;51.832;8.296;2023-12-07T05:59:14;116.13;;;52.90;;
13985;SDS011;7067;51.832;8.296;2023-12-07T06:01:40;111.23;;;52.67;;
13985;SDS011;7067;51.832;8.296;2023-12-07T06:04:07;117.30;;;52.30;;
13985;SDS011;7067;51.832;8.296;2023-12-07T06:06:34;111.67;;;52.20;;
13985;SDS011;7067;51.832;8.296;2023-12-07T06:08:59;115.53;;;52.73;;
13985;SDS011;7067;51.832;8.296;2023-12-07T06:11:24;106.90;;;50.10;;
13985;SDS011;7067;51.832;8.296;2023-12-07T06:13:50;129.37;;;52.20;;
13985;SDS011;7067;51.832;8.296;2023-12-07T06:16:15;106.60;;;51.93;;
13985;SDS011;7067;51.832;8.296;2023-12-07T06:18:42;113.17;;;49.87;;
13985;SDS011;7067;51.832;8.296;2023-12-07T06:21:08;108.87;;;47.93;;
13985;SDS011;7067;51.832;8.296;2023-12-07T06:23:33;106.33;;;48.87;;
13985;SDS011;7067;51.832;8.296;2023-12-07T06:25:59;102.57;;;46.90;;
13985;SDS011;7067;51.832;8.296;2023-12-07T06:28:24;113.67;;;49.37;;
13985;SDS011;7067;51.832;8.296;2023-12-07T06:30:50;104.67;;;47.53;;
13985;SDS011;7067;51.832;8.296;2023-12-07T06:33:15;109.57;;;49.07;;
13985;SDS011;7067;51.832;8.296;2023-12-07T06:35:40;110.13;;;47.50;;
13985;SDS011;7067;51.832;8.296;2023-12-07T06:38:06;103.00;;;47.73;;
13985;SDS011;7067;51.832;8.296;2023-12-07T06:40:31;101.03;;;45.73;;
13985;SDS011;7067;51.832;8.296;2023-12-07T06:42:56;98.07;;;46.60;;
13985;SDS011;7067;51.832;8.296;2023-12-07T06:45:22;105.47;;;49.57;;
13985;SDS011;7067;51.832;8.296;2023-12-07T06:47:47;98.23;;;46.30;;
13985;SDS011;7067;51.832;8.296;2023-12-07T06:50:13;101.73;;;46.93;;
13985;SDS011;7067;51.832;8.296;2023-12-07T06:52:38;98.47;;;47.73;;
13985;SDS011;7067;51.832;8.296;2023-12-07T06:55:05;98.63;;;47.03;;
13985;SDS011;7067;51.832;8.296;2023-12-07T06:57:30;96.30;;;47.23;;
13985;SDS011;7067;51.832;8.296;2023-12-07T06:59:56;97.30;;;44.73;;
13985;SDS011;7067;51.832;8.296;2023-12-07T07:02:21;90.33;;;45.63;;
13985;SDS011;7067;51.832;8.296;2023-12-07T07:04:48;83.13;;;43.93;;
13985;SDS011;7067;51.832;8.296;2023-12-07T07:07:14;88.77;;;44.07;;
13985;SDS011;7067;51.832;8.296;2023-12-07T07:09:39;84.27;;;44.23;;
13985;SDS011;7067;51.832;8.296;2023-12-07T07:12:05;82.50;;;42.17;;
13985;SDS011;7067;51.832;8.296;2023-12-07T07:14:30;80.90;;;41.47;;
13985;SDS011;7067;51.832;8.296;2023-12-07T07:16:56;82.80;;;42.30;;
13985;SDS011;7067;51.832;8.296;2023-12-07T07:19:21;81.10;;;40.97;;
13985;SDS011;7067;51.832;8.296;2023-12-07T07:21:46;83.47;;;41.23;;
13985;SDS011;7067;51.832;8.296;2023-12-07T07:24:12;75.90;;;39.23;;
13985;SDS011;7067;51.832;8.296;2023-12-07T07:26:37;78.87;;;39.00;;
13985;SDS011;7067;51.832;8.296;2023-12-07T07:29:03;80.30;;;41.07;;
13985;SDS011;7067;51.832;8.296;2023-12-07T07:31:29;80.73;;;40.57;;
13985;SDS011;7067;51.832;8.296;2023-12-07T07:33:55;73.53;;;41.03;;
13985;SDS011;7067;51.832;8.296;2023-12-07T07:36:20;75.00;;;38.33;;
13985;SDS011;7067;51.832;8.296;2023-12-07T07:38:45;71.90;;;38.53;;
13985;SDS011;7067;51.832;8.296;2023-12-07T07:41:11;75.60;;;39.53;;
13985;SDS011;7067;51.832;8.296;2023-12-07T07:43:37;69.57;;;38.70;;
13985;SDS011;7067;51.832;8.296;2023-12-07T07:46:06;72.77;;;38.00;;
13985;SDS011;7067;51.832;8.296;2023-12-07T07:48:31;67.70;;;36.95;;
13985;SDS011;7067;51.832;8.296;2023-12-07T07:50:57;70.87;;;38.67;;
13985;SDS011;7067;51.832;8.296;2023-12-07T07:53:23;72.90;;;37.60;;
13985;SDS011;7067;51.832;8.296;2023-12-07T07:55:48;72.13;;;37.10;;
13985;SDS011;7067;51.832;8.296;2023-12-07T07:58:13;67.63;;;37.87;;
13985;SDS011;7067;51.832;8.296;2023-12-07T08:00:39;72.17;;;38.40;;
13985;SDS011;7067;51.832;8.296;2023-12-07T08:03:04;69.70;;;37.37;;
13985;SDS011;7067;51.832;8.296;2023-12-07T08:05:30;69.77;;;37.47;;
13985;SDS011;7067;51.832;8.296;2023-12-07T08:07:55;66.10;;;36.23;;
13985;SDS011;7067;51.832;8.296;2023-12-07T08:10:21;68.67;;;37.90;;
13985;SDS011;7067;51.832;8.296;2023-12-07T08:12:46;67.67;;;36.93;;
13985;SDS011;7067;51.832;8.296;2023-12-07T08:15:11;65.47;;;36.37;;
13985;SDS011;7067;51.832;8.296;2023-12-07T08:17:38;67.93;;;35.80;;
13985;SDS011;7067;51.832;8.296;2023-12-07T08:20:07;50.78;;;28.98;;
13985;SDS011;7067;51.832;8.296;2023-12-07T08:22:35;66.00;;;37.80;;
13985;SDS011;7067;51.832;8.296;2023-12-07T08:25:00;68.60;;;36.73;;
13985;SDS011;7067;51.832;8.296;2023-12-07T08:27:26;63.20;;;36.63;;
13985;SDS011;7067;51.832;8.296;2023-12-07T08:29:51;61.80;;;34.57;;
13985;SDS011;7067;51.832;8.296;2023-12-07T08:32:16;63.03;;;34.57;;
13985;SDS011;7067;51.832;8.296;2023-12-07T08:34:44;63.67;;;36.13;;
13985;SDS011;7067;51.832;8.296;2023-12-07T08:37:10;62.20;;;35.07;;
13985;SDS011;7067;51.832;8.296;2023-12-07T08:39:35;69.13;;;36.60;;
13985;SDS011;7067;51.832;8.296;2023-12-07T08:42:00;61.80;;;35.30;;
13985;SDS011;7067;51.832;8.296;2023-12-07T08:44:26;64.97;;;35.63;;
13985;SDS011;7067;51.832;8.296;2023-12-07T08:46:51;62.20;;;34.60;;
13985;SDS011;7067;51.832;8.296;2023-12-07T08:49:17;60.10;;;35.93;;
13985;SDS011;7067;51.832;8.296;2023-12-07T08:51:42;62.13;;;34.83;;
13985;SDS011;7067;51.832;8.296;2023-12-07T08:54:07;65.43;;;38.10;;
13985;SDS011;7067;51.832;8.296;2023-12-07T08:56:33;59.67;;;34.37;;
13985;SDS011;7067;51.832;8.296;2023-12-07T08:58:58;63.37;;;36.27;;
13985;SDS011;7067;51.832;8.296;2023-12-07T09:01:24;64.97;;;38.03;;
13985;SDS011;7067;51.832;8.296;2023-12-07T09:03:51;59.40;;;35.73;;
13985;SDS011;7067;51.832;8.296;2023-12-07T09:06:16;62.83;;;35.10;;
13985;SDS011;7067;51.832;8.296;2023-12-07T09:08:42;58.93;;;35.30;;
13985;SDS011;7067;51.832;8.296;2023-12-07T09:11:08;57.90;;;34.40;;
13985;SDS011;7067;51.832;8.296;2023-12-07T09:13:33;53.83;;;35.27;;
13985;SDS011;7067;51.832;8.296;2023-12-07T09:15:59;57.67;;;34.20;;
13985;SDS011;7067;51.832;8.296;2023-12-07T09:18:24;55.37;;;33.33;;
13985;SDS011;7067;51.832;8.296;2023-12-07T09:20:49;58.07;;;36.77;;
13985;SDS011;7067;51.832;8.296;2023-12-07T09:23:15;59.73;;;35.87;;
13985;SDS011;7067;51.832;8.296;2023-12-07T09:25:40;61.97;;;37.60;;
13985;SDS011;7067;51.832;8.296;2023-12-07T09:28:06;54.93;;;34.43;;
13985;SDS011;7067;51.832;8.296;2023-12-07T09:30:31;56.97;;;33.77;;
13985;SDS011;7067;51.832;8.296;2023-12-07T09:32:58;57.07;;;33.47;;
13985;SDS011;7067;51.832;8.296;2023-12-07T09:35:24;49.00;;;33.23;;
13985;SDS011;7067;51.832;8.296;2023-12-07T09:37:49;54.70;;;34.10;;
13985;SDS011;7067;51.832;8.296;2023-12-07T09:40:15;50.47;;;31.47;;
13985;SDS011;7067;51.832;8.296;2023-12-07T09:42:45;50.15;;;32.00;;
13985;SDS011;7067;51.832;8.296;2023-12-07T09:45:11;49.60;;;31.30;;
13985;SDS011;7067;51.832;8.296;2023-12-07T09:47:37;50.63;;;31.00;;
13985;SDS011;7067;51.832;8.296;2023-12-07T09:50:04;49.13;;;32.23;;
13985;SDS011;7067;51.832;8.296;2023-12-07T09:52:30;48.97;;;33.07;;
13985;SDS011;7067;51.832;8.296;2023-12-07T09:54:56;47.93;;;31.90;;
13985;SDS011;7067;51.832;8.296;2023-12-07T09:57:21;47.13;;;31.50;;
13985;SDS011;7067;51.832;8.296;2023-12-07T09:59:47;51.70;;;32.43;;
13985;SDS011;7067;51.832;8.296;2023-12-07T10:02:13;50.50;;;31.13;;
13985;SDS011;7067;51.832;8.296;2023-12-07T10:04:39;47.67;;;30.17;;
13985;SDS011;7067;51.832;8.296;2023-12-07T10:07:04;44.73;;;28.73;;
13985;SDS011;7067;51.832;8.296;2023-12-07T10:09:33;43.07;;;27.73;;
13985;SDS011;7067;51.832;8.296;2023-12-07T10:12:02;42.67;;;27.70;;
13985;SDS011;7067;51.832;8.296;2023-12-07T10:14:28;40.83;;;29.25;;
13985;SDS011;7067;51.832;8.296;2023-12-07T10:16:55;44.93;;;30.23;;
13985;SDS011;7067;51.832;8.296;2023-12-07T10:19:21;43.47;;;29.10;;
13985;SDS011;7067;51.832;8.296;2023-12-07T10:21:47;41.87;;;29.63;;
13985;SDS011;7067;51.832;8.296;2023-12-07T10:24:16;45.53;;;29.00;;
13985;SDS011;7067;51.832;8.296;2023-12-07T10:26:45;41.47;;;28.63;;
13985;SDS011;7067;51.832;8.296;2023-12-07T10:29:12;45.72;;;29.60;;
13985;SDS011;7067;51.832;8.296;2023-12-07T10:31:37;42.20;;;28.50;;
13985;SDS011;7067;51.832;8.296;2023-12-07T10:34:03;42.30;;;30.73;;
13985;SDS011;7067;51.832;8.296;2023-12-07T10:36:29;45.53;;;30.47;;
13985;SDS011;7067;51.832;8.296;2023-12-07T10:38:55;46.57;;;30.60;;
13985;SDS011;7067;51.832;8.296;2023-12-07T10:41:21;43.63;;;30.50;;
13985;SDS011;7067;51.832;8.296;2023-12-07T10:43:49;42.33;;;30.20;;
13985;SDS011;7067;51.832;8.296;2023-12-07T10:46:17;39.57;;;28.00;;
13985;SDS011;7067;51.832;8.296;2023-12-07T10:48:45;40.20;;;30.33;;
13985;SDS011;7067;51.832;8.296;2023-12-07T10:51:17;40.27;;;29.17;;
13985;SDS011;7067;51.832;8.296;2023-12-07T10:53:55;44.33;;;28.63;;
13985;SDS011;7067;51.832;8.296;2023-12-07T10:56:25;42.33;;;29.23;;
13985;SDS011;7067;51.832;8.296;2023-12-07T10:58:55;42.03;;;28.10;;
13985;SDS011;7067;51.832;8.296;2023-12-07T11:01:21;40.10;;;29.13;;
13985;SDS011;7067;51.832;8.296;2023-12-07T11:03:46;41.33;;;28.80;;
13985;SDS011;7067;51.832;8.296;2023-12-07T11:06:14;39.33;;;28.30;;
13985;SDS011;7067;51.832;8.296;2023-12-07T11:08:44;44.63;;;29.43;;
13985;SDS011;7067;51.832;8.296;2023-12-07T11:16:32;42.80;;;29.23;;
13985;SDS011;7067;51.832;8.296;2023-12-07T11:19:00;38.17;;;28.83;;
13985;SDS011;7067;51.832;8.296;2023-12-07T11:21:25;42.37;;;29.27;;
13985;SDS011;7067;51.832;8.296;2023-12-07T11:23:52;41.33;;;28.53;;
13985;SDS011;7067;51.832;8.296;2023-12-07T11:26:19;37.27;;;27.67;;
13985;SDS011;7067;51.832;8.296;2023-12-07T11:28:45;40.77;;;29.07;;
13985;SDS011;7067;51.832;8.296;2023-12-07T11:31:11;39.77;;;27.47;;
13985;SDS011;7067;51.832;8.296;2023-12-07T11:33:39;37.70;;;28.07;;
13985;SDS011;7067;51.832;8.296;2023-12-07T11:36:05;44.17;;;29.50;;
13985;SDS011;7067;51.832;8.296;2023-12-07T11:38:32;35.83;;;28.10;;
13985;SDS011;7067;51.832;8.296;2023-12-07T11:40:57;36.30;;;26.93;;
13985;SDS011;7067;51.832;8.296;2023-12-07T11:46:03;33.77;;;25.90;;
13985;SDS011;7067;51.832;8.296;2023-12-07T11:48:29;36.03;;;26.37;;
13985;SDS011;7067;51.832;8.296;2023-12-07T11:53:27;38.80;;;28.03;;
13985;SDS011;7067;51.832;8.296;2023-12-07T11:55:55;36.27;;;27.60;;
13985;SDS011;7067;51.832;8.296;2023-12-07T11:58:20;34.70;;;25.80;;
13985;SDS011;7067;51.832;8.296;2023-12-07T12:00:46;33.97;;;26.90;;
13985;SDS011;7067;51.832;8.296;2023-12-07T12:03:15;38.43;;;28.83;;
13985;SDS011;7067;51.832;8.296;2023-12-07T12:05:41;35.37;;;29.03;;
13985;SDS011;7067;51.832;8.296;2023-12-07T12:08:08;35.83;;;26.57;;
13985;SDS011;7067;51.832;8.296;2023-12-07T12:10:33;39.87;;;29.40;;
13985;SDS011;7067;51.832;8.296;2023-12-07T12:13:02;39.40;;;29.93;;
13985;SDS011;7067;51.832;8.296;2023-12-07T12:15:28;38.67;;;27.75;;
13985;SDS011;7067;51.832;8.296;2023-12-07T12:17:55;35.33;;;27.50;;
13985;SDS011;7067;51.832;8.296;2023-12-07T12:20:21;40.70;;;27.63;;
13985;SDS011;7067;51.832;8.296;2023-12-07T12:22:47;35.63;;;27.53;;
13985;SDS011;7067;51.832;8.296;2023-12-07T12:25:12;34.53;;;27.17;;
13985;SDS011;7067;51.832;8.296;2023-12-07T12:27:38;32.40;;;25.40;;
13985;SDS011;7067;51.832;8.296;2023-12-07T12:30:03;35.63;;;27.33;;
13985;SDS011;7067;51.832;8.296;2023-12-07T12:32:45;37.10;;;26.87;;
13985;SDS011;7067;51.832;8.296;2023-12-07T12:35:10;33.80;;;25.17;;
13985;SDS011;7067;51.832;8.296;2023-12-07T12:37:38;31.07;;;24.13;;
13985;SDS011;7067;51.832;8.296;2023-12-07T12:40:05;30.57;;;24.27;;
13985;SDS011;7067;51.832;8.296;2023-12-07T12:42:31;33.10;;;24.90;;
13985;SDS011;7067;51.832;8.296;2023-12-07T12:44:57;32.17;;;24.70;;
13985;SDS011;7067;51.832;8.296;2023-12-07T12:47:22;28.33;;;22.50;;
13985;SDS011;7067;51.832;8.296;2023-12-07T12:49:48;32.80;;;25.77;;
13985;SDS011;7067;51.832;8.296;2023-12-07T12:52:17;33.77;;;24.53;;
13985;SDS011;7067;51.832;8.296;2023-12-07T12:54:43;31.67;;;25.13;;
13985;SDS011;7067;51.832;8.296;2023-12-07T12:57:09;31.67;;;24.30;;
13985;SDS011;7067;51.832;8.296;2023-12-07T12:59:35;34.13;;;24.57;;
13985;SDS011;7067;51.832;8.296;2023-12-07T13:02:03;29.13;;;23.13;;
13985;SDS011;7067;51.832;8.296;2023-12-07T13:04:34;31.60;;;22.70;;
13985;SDS011;7067;51.832;8.296;2023-12-07T13:06:59;31.60;;;22.80;;
13985;SDS011;7067;51.832;8.296;2023-12-07T13:09:25;24.57;;;21.23;;
13985;SDS011;7067;51.832;8.296;2023-12-07T13:11:50;25.13;;;20.80;;
13985;SDS011;7067;51.832;8.296;2023-12-07T13:14:16;25.07;;;20.43;;
13985;SDS011;7067;51.832;8.296;2023-12-07T13:16:42;22.73;;;19.37;;
13985;SDS011;7067;51.832;8.296;2023-12-07T13:19:07;24.07;;;20.90;;
13985;SDS011;7067;51.832;8.296;2023-12-07T13:21:33;25.73;;;19.67;;
13985;SDS011;7067;51.832;8.296;2023-12-07T13:23:58;23.50;;;19.50;;
13985;SDS011;7067;51.832;8.296;2023-12-07T13:26:24;22.57;;;19.70;;
13985;SDS011;7067;51.832;8.296;2023-12-07T13:28:49;23.33;;;19.57;;
13985;SDS011;7067;51.832;8.296;2023-12-07T13:31:15;22.37;;;18.77;;
13985;SDS011;7067;51.832;8.296;2023-12-07T13:33:40;24.43;;;19.13;;
13985;SDS011;7067;51.832;8.296;2023-12-07T13:36:06;22.93;;;20.13;;
13985;SDS011;7067;51.832;8.296;2023-12-07T13:38:32;23.07;;;18.50;;
13985;SDS011;7067;51.832;8.296;2023-12-07T13:40:59;24.17;;;18.30;;
13985;SDS011;7067;51.832;8.296;2023-12-07T13:43:25;20.33;;;17.13;;
13985;SDS011;7067;51.832;8.296;2023-12-07T13:45:50;23.70;;;17.63;;
13985;SDS011;7067;51.832;8.296;2023-12-07T13:48:15;22.17;;;18.20;;
13985;SDS011;7067;51.832;8.296;2023-12-07T13:50:41;21.13;;;17.57;;
13985;SDS011;7067;51.832;8.296;2023-12-07T13:53:07;18.90;;;16.87;;
13985;SDS011;7067;51.832;8.296;2023-12-07T13:55:36;19.93;;;16.43;;
13985;SDS011;7067;51.832;8.296;2023-12-07T13:58:02;21.57;;;16.70;;
13985;SDS011;7067;51.832;8.296;2023-12-07T14:00:28;18.83;;;16.40;;
13985;SDS011;7067;51.832;8.296;2023-12-07T14:02:53;19.27;;;16.60;;
13985;SDS011;7067;51.832;8.296;2023-12-07T14:05:18;18.33;;;16.40;;
13985;SDS011;7067;51.832;8.296;2023-12-07T14:07:44;20.73;;;16.47;;
13985;SDS011;7067;51.832;8.296;2023-12-07T14:10:10;18.23;;;15.90;;
13985;SDS011;7067;51.832;8.296;2023-12-07T14:12:36;19.80;;;17.17;;
13985;SDS011;7067;51.832;8.296;2023-12-07T14:15:02;22.00;;;15.67;;
13985;SDS011;7067;51.832;8.296;2023-12-07T14:17:28;18.73;;;16.63;;
13985;SDS011;7067;51.832;8.296;2023-12-07T14:20:01;19.37;;;15.80;;
13985;SDS011;7067;51.832;8.296;2023-12-07T14:22:28;18.30;;;15.53;;
13985;SDS011;7067;51.832;8.296;2023-12-07T14:24:53;20.90;;;16.07;;
13985;SDS011;7067;51.832;8.296;2023-12-07T14:27:19;20.27;;;16.20;;
13985;SDS011;7067;51.832;8.296;2023-12-07T14:29:44;19.27;;;16.37;;
13985;SDS011;7067;51.832;8.296;2023-12-07T14:32:09;19.80;;;16.03;;
13985;SDS011;7067;51.832;8.296;2023-12-07T14:34:35;20.17;;;16.43;;
13985;SDS011;7067;51.832;8.296;2023-12-07T14:37:01;18.10;;;16.27;;
13985;SDS011;7067;51.832;8.296;2023-12-07T14:39:27;22.30;;;16.90;;